createdAt,value
2019-03-09T00:00:48.496Z,98480.00
2019-03-09T00:03:17.648Z,98479.00
2019-03-09T00:05:46.744Z,98468.00
2019-03-09T00:08:15.946Z,98470.00
2019-03-09T00:10:45.278Z,98469.00
2019-03-09T00:13:14.386Z,98458.00
2019-03-09T00:15:43.518Z,98454.00
2019-03-09T00:18:12.671Z,98456.00
2019-03-09T00:20:41.928Z,98464.00
2019-03-09T00:23:39.192Z,98458.00
2019-03-09T00:26:22.817Z,98452.00
2019-03-09T00:29:00.701Z,98470.00
2019-03-09T00:31:34.600Z,98450.00
2019-03-09T00:34:03.790Z,98460.00
2019-03-09T00:36:33.067Z,98453.00
2019-03-09T00:39:02.223Z,98455.00
2019-03-09T00:41:31.665Z,98462.00
2019-03-09T00:44:00.857Z,98449.00
2019-03-09T00:46:30.004Z,98457.00
2019-03-09T00:48:59.164Z,98453.00
2019-03-09T00:51:28.390Z,98458.00
2019-03-09T00:53:57.935Z,98443.00
2019-03-09T00:56:27.183Z,98447.00
2019-03-09T00:58:56.321Z,98442.00
2019-03-09T01:01:25.647Z,98443.00
2019-03-09T01:03:54.880Z,98432.00
2019-03-09T01:06:24.050Z,98433.00
2019-03-09T01:08:53.294Z,98432.00
2019-03-09T01:11:22.399Z,98426.00
2019-03-09T01:13:51.679Z,98428.00
2019-03-09T01:26:47.939Z,98385.00
2019-03-09T01:29:17.018Z,98395.00
2019-03-09T01:31:46.256Z,98388.00
2019-03-09T01:34:15.518Z,98389.00
2019-03-09T01:36:44.752Z,98394.00
2019-03-09T01:39:13.964Z,98387.00
2019-03-09T01:41:43.205Z,98370.00
2019-03-09T01:44:12.378Z,98367.00
2019-03-09T01:46:41.469Z,98359.00
2019-03-09T01:49:10.750Z,98358.00
2019-03-09T01:51:39.836Z,98358.00
2019-03-09T01:54:09.460Z,98356.00
2019-03-09T01:56:38.773Z,98355.00
2019-03-09T01:59:08.088Z,98346.00
2019-03-09T02:01:37.096Z,98357.00
2019-03-09T02:04:06.591Z,98348.00
2019-03-09T02:06:36.234Z,98335.00
2019-03-09T02:09:06.538Z,98335.00
2019-03-09T02:11:35.627Z,98337.00
2019-03-09T02:14:04.823Z,98340.00
2019-03-09T02:16:33.910Z,98329.00
2019-03-09T02:19:02.918Z,98330.00
2019-03-09T02:21:31.923Z,98334.00
2019-03-09T02:24:01.312Z,98315.00
2019-03-09T02:26:30.592Z,98318.00
2019-03-09T02:29:01.123Z,98307.00
2019-03-09T02:31:30.638Z,98301.00
2019-03-09T02:33:59.894Z,98293.00
2019-03-09T02:36:30.177Z,98294.00
2019-03-09T02:39:10.026Z,98284.00
2019-03-09T02:41:39.113Z,98285.00
2019-03-09T02:44:08.289Z,98278.00
2019-03-09T02:46:37.436Z,98268.00
2019-03-09T02:49:06.817Z,98263.00
2019-03-09T02:51:36.114Z,98257.00
2019-03-09T02:54:05.423Z,98249.00
2019-03-09T02:56:34.833Z,98237.00
2019-03-09T02:59:03.966Z,98237.00
2019-03-09T03:01:42.491Z,98226.00
2019-03-09T03:04:11.648Z,98219.00
2019-03-09T03:06:41.028Z,98220.00
2019-03-09T03:09:10.274Z,98206.00
2019-03-09T03:11:39.357Z,98202.00
2019-03-09T03:14:08.464Z,98210.00
2019-03-09T03:16:37.750Z,98195.00
2019-03-09T03:19:06.846Z,98201.00
2019-03-09T03:21:36.019Z,98184.00
2019-03-09T03:24:05.334Z,98181.00
2019-03-09T03:26:34.513Z,98184.00
2019-03-09T03:29:03.934Z,98162.00
2019-03-09T03:31:33.474Z,98163.00
2019-03-09T03:34:02.652Z,98169.00
2019-03-09T03:36:31.850Z,98157.00
2019-03-09T03:39:01.487Z,98156.00
2019-03-09T03:41:30.852Z,98143.00
2019-03-09T03:44:00.383Z,98140.00
2019-03-09T03:46:30.023Z,98151.00
2019-03-09T03:48:59.284Z,98148.00
2019-03-09T03:51:28.520Z,98155.00
2019-03-09T03:53:58.104Z,98136.00
2019-03-09T03:56:27.446Z,98136.00
2019-03-09T03:58:56.784Z,98138.00
2019-03-09T04:01:26.229Z,98130.00
2019-03-09T04:03:55.436Z,98131.00
2019-03-09T04:06:25.009Z,98129.00
2019-03-09T04:08:54.099Z,98135.00
2019-03-09T04:11:23.466Z,98129.00
2019-03-09T04:13:52.623Z,98131.00
2019-03-09T04:16:21.834Z,98122.00
2019-03-09T04:18:51.179Z,98124.00
2019-03-09T04:21:20.397Z,98119.00
2019-03-09T04:23:49.593Z,98126.00
2019-03-09T04:26:18.833Z,98118.00
2019-03-09T04:28:48.075Z,98119.00
2019-03-09T04:31:18.370Z,98124.00
2019-03-09T04:33:47.467Z,98116.00
2019-03-09T04:36:16.738Z,98115.00
2019-03-09T04:38:45.923Z,98121.00
2019-03-09T04:41:15.173Z,98109.00
2019-03-09T04:43:44.336Z,98112.00
2019-03-09T04:46:13.835Z,98109.00
2019-03-09T04:48:43.128Z,98118.00
2019-03-09T04:51:12.281Z,98128.00
2019-03-09T04:53:41.273Z,98121.00
2019-03-09T04:56:10.505Z,98136.00
2019-03-09T04:58:39.637Z,98131.00
2019-03-09T05:01:08.874Z,98129.00
2019-03-09T05:03:38.135Z,98119.00
2019-03-09T05:06:09.000Z,98117.00
2019-03-09T05:09:00.201Z,98115.00
2019-03-09T05:11:31.570Z,98128.00
2019-03-09T05:14:10.156Z,98124.00
2019-03-09T05:16:39.285Z,98112.00
2019-03-09T05:19:08.693Z,98128.00
2019-03-09T05:21:38.129Z,98140.00
2019-03-09T05:24:07.295Z,98135.00
2019-03-09T05:26:36.463Z,98127.00
2019-03-09T05:29:05.611Z,98137.00
2019-03-09T05:31:34.771Z,98130.00
2019-03-09T05:34:03.925Z,98129.00
2019-03-09T05:36:32.996Z,98133.00
2019-03-09T05:39:02.019Z,98131.00
2019-03-09T05:41:31.475Z,98127.00
2019-03-09T05:44:00.601Z,98128.00
2019-03-09T05:46:29.983Z,98131.00
2019-03-09T05:48:59.150Z,98134.00
2019-03-09T05:51:28.238Z,98138.00
2019-03-09T05:53:57.443Z,98140.00
2019-03-09T05:56:26.824Z,98149.00
2019-03-09T05:58:56.150Z,98145.00
2019-03-09T06:01:25.369Z,98153.00
2019-03-09T06:03:54.623Z,98152.00
2019-03-09T06:06:23.821Z,98149.00
2019-03-09T06:08:52.976Z,98141.00
2019-03-09T06:11:22.054Z,98144.00
2019-03-09T06:13:51.064Z,98148.00
2019-03-09T06:16:20.587Z,98148.00
2019-03-09T06:18:49.849Z,98143.00
2019-03-09T06:21:19.020Z,98140.00
2019-03-09T06:23:48.056Z,98139.00
2019-03-09T06:26:17.328Z,98138.00
2019-03-09T06:28:46.336Z,98137.00
2019-03-09T06:31:15.413Z,98156.00
2019-03-09T06:33:46.382Z,98151.00
2019-03-09T06:37:00.021Z,98151.00
2019-03-09T06:39:41.144Z,98162.00
2019-03-09T06:42:49.756Z,98173.00
2019-03-09T06:45:19.749Z,98163.00
2019-03-09T06:47:49.246Z,98166.00
2019-03-09T06:50:21.696Z,98180.00
2019-03-09T06:52:51.107Z,98191.00
2019-03-09T06:55:20.124Z,98190.00
2019-03-09T06:57:49.329Z,98214.00
2019-03-09T07:00:33.259Z,98197.00
2019-03-09T07:03:02.576Z,98210.00
2019-03-09T07:05:31.747Z,98205.00
2019-03-09T07:08:00.961Z,98210.00
2019-03-09T07:10:30.184Z,98219.00
2019-03-09T07:12:59.336Z,98209.00
2019-03-09T07:15:33.946Z,98206.00
2019-03-09T07:18:08.577Z,98205.00
2019-03-09T07:20:37.680Z,98195.00
2019-03-09T07:23:06.772Z,98208.00
2019-03-09T07:25:36.018Z,98205.00
2019-03-09T07:28:09.678Z,98196.00
2019-03-09T07:30:38.959Z,98196.00
2019-03-09T07:33:08.073Z,98201.00
2019-03-09T07:35:37.414Z,98180.00
2019-03-09T07:38:06.612Z,98193.00
2019-03-09T07:40:35.687Z,98205.00
2019-03-09T07:43:04.924Z,98220.00
2019-03-09T07:45:34.280Z,98217.00
2019-03-09T07:48:03.295Z,98214.00
2019-03-09T07:50:32.524Z,98229.00
2019-03-09T07:53:01.734Z,98238.00
2019-03-09T07:55:31.108Z,98234.00
2019-03-09T07:58:02.063Z,98238.00
2019-03-09T08:00:31.291Z,98223.00
2019-03-09T08:03:00.521Z,98228.00
2019-03-09T08:05:29.684Z,98221.00
2019-03-09T08:07:58.955Z,98223.00
2019-03-09T08:10:28.532Z,98233.00
2019-03-09T08:12:57.585Z,98224.00
2019-03-09T08:15:27.164Z,98219.00
2019-03-09T08:17:56.245Z,98221.00
2019-03-09T08:20:25.362Z,98238.00
2019-03-09T08:22:54.514Z,98232.00
2019-03-09T08:25:23.600Z,98229.00
2019-03-09T08:27:52.978Z,98241.00
2019-03-09T08:30:22.947Z,98242.00
2019-03-09T08:32:52.279Z,98234.00
2019-03-09T08:35:21.837Z,98242.00
2019-03-09T08:37:51.986Z,98230.00
2019-03-09T08:40:21.336Z,98229.00
2019-03-09T08:42:50.567Z,98239.00
2019-03-09T08:45:19.880Z,98240.00
2019-03-09T08:47:52.506Z,98243.00
2019-03-09T08:50:21.159Z,98247.00
2019-03-09T08:52:50.437Z,98253.00
2019-03-09T08:55:19.576Z,98248.00
2019-03-09T08:57:48.915Z,98239.00
2019-03-09T09:00:26.352Z,98246.00
2019-03-09T09:02:55.374Z,98253.00
2019-03-09T09:05:24.502Z,98241.00
2019-03-09T09:07:53.666Z,98253.00
2019-03-09T09:10:22.906Z,98263.00
2019-03-09T09:12:52.474Z,98266.00
2019-03-09T09:15:21.555Z,98265.00
2019-03-09T09:17:50.563Z,98262.00
2019-03-09T09:20:20.671Z,98265.00
2019-03-09T09:22:49.892Z,98260.00
2019-03-09T09:25:19.377Z,98278.00
2019-03-09T09:27:48.630Z,98283.00
2019-03-09T09:30:22.780Z,98282.00
2019-03-09T09:32:51.858Z,98293.00
2019-03-09T09:35:21.027Z,98302.00
2019-03-09T09:37:50.245Z,98312.00
2019-03-09T09:40:20.391Z,98310.00
2019-03-09T09:42:49.916Z,98312.00
2019-03-09T09:45:19.259Z,98313.00
2019-03-09T09:47:48.885Z,98321.00
2019-03-09T09:50:18.334Z,98329.00
2019-03-09T09:52:47.758Z,98325.00
2019-03-09T09:55:17.451Z,98318.00
2019-03-09T09:57:46.518Z,98331.00
2019-03-09T10:00:20.939Z,98322.00
2019-03-09T10:02:50.135Z,98335.00
2019-03-09T10:05:19.420Z,98328.00
2019-03-09T10:07:48.586Z,98334.00
2019-03-09T10:10:18.522Z,98338.00
2019-03-09T10:12:47.967Z,98338.00
2019-03-09T10:15:19.831Z,98334.00
2019-03-09T10:17:49.042Z,98338.00
2019-03-09T10:20:18.209Z,98340.00
2019-03-09T10:22:47.749Z,98343.00
2019-03-09T10:25:16.750Z,98346.00
2019-03-09T10:30:31.986Z,98356.00
2019-03-09T10:33:01.408Z,98354.00
2019-03-09T10:35:30.511Z,98350.00
2019-03-09T10:38:00.249Z,98346.00
2019-03-09T10:40:29.584Z,98347.00
2019-03-09T10:42:58.854Z,98344.00
2019-03-09T10:45:27.882Z,98355.00
2019-03-09T10:47:58.110Z,98347.00
2019-03-09T10:50:27.621Z,98352.00
2019-03-09T10:52:56.741Z,98361.00
2019-03-09T10:55:26.079Z,98367.00
2019-03-09T10:57:55.402Z,98364.00
2019-03-09T11:00:33.990Z,98375.00
2019-03-09T11:03:03.198Z,98388.00
2019-03-09T11:05:32.293Z,98364.00
2019-03-09T11:08:01.368Z,98378.00
2019-03-09T11:10:30.383Z,98389.00
2019-03-09T11:12:59.605Z,98388.00
2019-03-09T11:15:28.824Z,98379.00
2019-03-09T11:17:58.236Z,98391.00
2019-03-09T11:20:27.587Z,98387.00
2019-03-09T11:22:57.056Z,98394.00
2019-03-09T11:25:26.544Z,98384.00
2019-03-09T11:27:55.612Z,98386.00
2019-03-09T11:30:25.592Z,98392.00
2019-03-09T11:32:54.999Z,98391.00
2019-03-09T11:35:24.238Z,98390.00
2019-03-09T11:37:53.406Z,98400.00
2019-03-09T11:40:22.638Z,98393.00
2019-03-09T11:42:51.801Z,98379.00
2019-03-09T11:45:21.166Z,98378.00
2019-03-09T11:47:50.471Z,98377.00
2019-03-09T11:50:19.624Z,98362.00
2019-03-09T11:52:49.162Z,98356.00
2019-03-09T11:55:18.331Z,98356.00
2019-03-09T11:57:47.461Z,98360.00
2019-03-09T12:00:21.657Z,98367.00
2019-03-09T12:02:50.826Z,98366.00
2019-03-09T12:07:49.559Z,98356.00
2019-03-09T12:10:19.286Z,98362.00
2019-03-09T12:12:48.782Z,98357.00
2019-03-09T12:15:17.895Z,98360.00
2019-03-09T12:17:47.221Z,98373.00
2019-03-09T12:20:17.372Z,98360.00
2019-03-09T12:22:46.559Z,98371.00
2019-03-09T12:25:15.869Z,98369.00
2019-03-09T12:27:45.152Z,98382.00
2019-03-09T12:30:15.603Z,98363.00
2019-03-09T12:32:44.840Z,98368.00
2019-03-09T12:35:14.478Z,98379.00
2019-03-09T12:37:43.856Z,98383.00
2019-03-09T12:40:14.035Z,98367.00
2019-03-09T12:42:43.184Z,98364.00
2019-03-09T12:45:12.816Z,98357.00
2019-03-09T12:47:42.379Z,98363.00
2019-03-09T12:50:14.190Z,98361.00
2019-03-09T12:52:43.365Z,98361.00
2019-03-09T12:55:12.449Z,98346.00
2019-03-09T12:57:41.519Z,98336.00
2019-03-09T13:00:13.119Z,98339.00
2019-03-09T13:02:42.164Z,98330.00
2019-03-09T13:05:11.469Z,98321.00
2019-03-09T13:07:40.532Z,98324.00
2019-03-09T13:10:10.090Z,98320.00
2019-03-09T13:12:39.240Z,98310.00
2019-03-09T13:15:08.561Z,98332.00
2019-03-09T13:17:37.641Z,98329.00
2019-03-09T13:20:07.522Z,98310.00
2019-03-09T13:22:36.664Z,98313.00
2019-03-09T13:25:06.231Z,98325.00
2019-03-09T13:27:35.423Z,98310.00
2019-03-09T13:30:05.069Z,98311.00
2019-03-09T13:32:34.497Z,98308.00
2019-03-09T13:35:03.661Z,98313.00
2019-03-09T13:37:34.125Z,98310.00
2019-03-09T13:40:03.485Z,98314.00
2019-03-09T13:42:32.624Z,98301.00
2019-03-09T13:45:01.887Z,98283.00
2019-03-09T13:47:31.270Z,98297.00
2019-03-09T13:50:00.570Z,98299.00
2019-03-09T13:52:29.651Z,98302.00
2019-03-09T13:54:58.875Z,98283.00
2019-03-09T13:57:28.404Z,98287.00
2019-03-09T13:59:58.819Z,98273.00
2019-03-09T14:02:28.224Z,98286.00
2019-03-09T14:04:57.616Z,98275.00
2019-03-09T14:07:27.435Z,98262.00
2019-03-09T14:09:56.527Z,98248.00
2019-03-09T14:12:25.648Z,98202.00
2019-03-09T14:14:54.734Z,98191.00
2019-03-09T14:17:23.898Z,98185.00
2019-03-09T14:19:53.152Z,98174.00
2019-03-09T14:22:22.247Z,98157.00
2019-03-09T14:24:51.749Z,98139.00
2019-03-09T14:27:21.352Z,98133.00
2019-03-09T14:29:50.509Z,98124.00
2019-03-09T14:32:19.633Z,98112.00
2019-03-09T14:34:48.731Z,98096.00
2019-03-09T14:37:18.033Z,98107.00
2019-03-09T14:39:47.154Z,98096.00
2019-03-09T14:42:17.151Z,98095.00
2019-03-09T14:44:46.368Z,98101.00
2019-03-09T14:47:15.601Z,98098.00
2019-03-09T14:49:47.046Z,98077.00
2019-03-09T14:52:16.423Z,98064.00
2019-03-09T14:54:45.500Z,98067.00
2019-03-09T14:57:14.577Z,98040.00
2019-03-09T14:59:43.860Z,98040.00
2019-03-09T15:02:13.959Z,98040.00
2019-03-09T15:04:43.135Z,98034.00
2019-03-09T15:07:12.327Z,98023.00
2019-03-09T15:09:41.567Z,98014.00
2019-03-09T15:12:10.807Z,98017.00
2019-03-09T15:14:40.502Z,98000.00
2019-03-09T15:17:09.920Z,97988.00
2019-03-09T15:19:39.151Z,97992.00
2019-03-09T15:22:08.330Z,97996.00
2019-03-09T15:24:37.433Z,97999.00
2019-03-09T15:27:07.035Z,97981.00
2019-03-09T15:29:36.208Z,97972.00
2019-03-09T15:32:05.577Z,97960.00
2019-03-09T15:34:34.727Z,97949.00
2019-03-09T15:37:03.986Z,97945.00
2019-03-09T15:39:34.623Z,97937.00
2019-03-09T15:42:04.309Z,97941.00
2019-03-09T15:44:34.000Z,97931.00
2019-03-09T15:47:03.226Z,97942.00
2019-03-09T15:49:33.381Z,97941.00
2019-03-09T15:52:02.821Z,97938.00
2019-03-09T15:54:32.020Z,97931.00
2019-03-09T15:57:01.457Z,97930.00
2019-03-09T15:59:30.552Z,97933.00
2019-03-09T16:02:03.232Z,97933.00
2019-03-09T16:04:32.504Z,97933.00
2019-03-09T16:07:06.858Z,97922.00
2019-03-09T16:09:36.188Z,97913.00
2019-03-09T16:12:23.762Z,97911.00
2019-03-09T16:15:50.410Z,97906.00
2019-03-09T16:18:19.701Z,97896.00
2019-03-09T16:20:48.875Z,97903.00
2019-03-09T16:23:18.774Z,97910.00
2019-03-09T16:25:47.874Z,97901.00
2019-03-09T16:28:17.058Z,97902.00
2019-03-09T16:30:46.771Z,97905.00
2019-03-09T16:33:15.942Z,97895.00
2019-03-09T16:35:45.398Z,97885.00
2019-03-09T16:38:14.578Z,97883.00
2019-03-09T16:40:43.808Z,97894.00
2019-03-09T16:43:15.440Z,97865.00
2019-03-09T16:45:49.051Z,97876.00
2019-03-09T16:48:18.317Z,97845.00
2019-03-09T16:50:47.634Z,97859.00
2019-03-09T16:53:17.227Z,97843.00
2019-03-09T16:55:46.766Z,97855.00
2019-03-09T16:58:15.748Z,97860.00
2019-03-09T17:00:45.027Z,97855.00
2019-03-09T17:03:14.108Z,97855.00
2019-03-09T17:05:43.334Z,97860.00
2019-03-09T17:08:12.451Z,97860.00
2019-03-09T17:10:41.688Z,97863.00
2019-03-09T17:13:14.389Z,97855.00
2019-03-09T17:15:44.063Z,97850.00
2019-03-09T17:18:14.015Z,97845.00
2019-03-09T17:20:43.508Z,97863.00
2019-03-09T17:23:12.768Z,97857.00
2019-03-09T17:25:41.963Z,97864.00
2019-03-09T17:28:11.030Z,97871.00
2019-03-09T17:30:40.176Z,97887.00
2019-03-09T17:33:09.475Z,97876.00
2019-03-09T17:35:38.682Z,97884.00
2019-03-09T17:38:07.924Z,97881.00
2019-03-09T17:40:37.184Z,97880.00
2019-03-09T17:43:07.340Z,97884.00
2019-03-09T17:45:36.595Z,97897.00
2019-03-09T17:48:05.748Z,97908.00
2019-03-09T17:50:35.162Z,97911.00
2019-03-09T17:53:04.643Z,97910.00
2019-03-09T17:55:34.380Z,97925.00
2019-03-09T17:58:03.737Z,97946.00
2019-03-09T18:00:42.177Z,97930.00
2019-03-09T18:03:06.786Z,97947.00
2019-03-09T18:05:36.009Z,97949.00
2019-03-09T18:08:05.281Z,97962.00
2019-03-09T18:10:56.246Z,97968.00
2019-03-09T18:13:25.888Z,97961.00
2019-03-09T18:15:55.377Z,97965.00
2019-03-09T18:18:24.627Z,97966.00
2019-03-09T18:20:54.182Z,97973.00
2019-03-09T18:23:23.450Z,97985.00
2019-03-09T18:25:52.725Z,97997.00
2019-03-09T18:28:21.829Z,97994.00
2019-03-09T18:30:50.941Z,98004.00
2019-03-09T18:33:21.268Z,97985.00
2019-03-09T18:35:50.549Z,97999.00
2019-03-09T18:38:19.900Z,97994.00
2019-03-09T18:40:49.842Z,97999.00
2019-03-09T18:43:19.317Z,97992.00
2019-03-09T18:45:48.988Z,98016.00
2019-03-09T18:48:18.318Z,98026.00
2019-03-09T18:50:47.662Z,98035.00
2019-03-09T18:53:16.975Z,98036.00
2019-03-09T18:55:46.389Z,98032.00
2019-03-09T18:58:15.606Z,98032.00
2019-03-09T19:00:45.098Z,98041.00
2019-03-09T19:03:14.505Z,98052.00
2019-03-09T19:05:43.756Z,98048.00
2019-03-09T19:08:13.255Z,98039.00
2019-03-09T19:10:42.585Z,98063.00
2019-03-09T19:13:12.643Z,98069.00
2019-03-09T19:15:41.879Z,98060.00
2019-03-09T19:18:11.406Z,98055.00
2019-03-09T19:20:40.638Z,98063.00
2019-03-09T19:23:09.925Z,98080.00
2019-03-09T19:25:39.110Z,98088.00
2019-03-09T19:28:08.317Z,98090.00
2019-03-09T19:30:37.639Z,98103.00
2019-03-09T19:33:06.820Z,98102.00
2019-03-09T19:35:36.008Z,98131.00
2019-03-09T19:38:05.179Z,98146.00
2019-03-09T19:40:34.542Z,98162.00
2019-03-09T19:43:03.973Z,98209.00
2019-03-09T19:45:33.373Z,98283.00
2019-03-09T19:48:02.680Z,98298.00
2019-03-09T19:50:31.898Z,98295.00
2019-03-09T19:53:01.303Z,98310.00
2019-03-09T19:55:31.596Z,98332.00
2019-03-09T19:58:00.845Z,98326.00
2019-03-09T20:00:30.106Z,98304.00
2019-03-09T20:02:59.215Z,98302.00
2019-03-09T20:05:28.503Z,98302.00
2019-03-09T20:07:57.677Z,98306.00
2019-03-09T20:10:26.769Z,98331.00
2019-03-09T20:12:57.265Z,98355.00
2019-03-09T20:15:26.447Z,98347.00
2019-03-09T20:17:56.267Z,98338.00
2019-03-09T20:20:25.437Z,98345.00
2019-03-09T20:22:54.997Z,98353.00
2019-03-09T20:25:24.216Z,98358.00
2019-03-09T20:27:53.225Z,98354.00
2019-03-09T20:30:22.325Z,98356.00
2019-03-09T20:32:51.536Z,98372.00
2019-03-09T20:35:20.674Z,98389.00
2019-03-09T20:37:49.942Z,98378.00
2019-03-09T20:40:22.538Z,98362.00
2019-03-09T20:42:51.855Z,98365.00
2019-03-09T20:45:24.629Z,98386.00
2019-03-09T20:47:53.856Z,98375.00
2019-03-09T20:50:23.222Z,98384.00
2019-03-09T20:52:52.749Z,98399.00
2019-03-09T20:55:21.979Z,98389.00
2019-03-09T20:57:51.330Z,98402.00
2019-03-09T21:00:20.600Z,98401.00
2019-03-09T21:02:49.843Z,98403.00
2019-03-09T21:05:18.920Z,98422.00
2019-03-09T21:07:48.359Z,98432.00
2019-03-09T21:10:17.577Z,98413.00
2019-03-09T21:12:57.618Z,98403.00
2019-03-09T21:15:26.690Z,98415.00
2019-03-09T21:17:55.754Z,98421.00
2019-03-09T21:20:24.814Z,98409.00
2019-03-09T21:22:53.811Z,98411.00
2019-03-09T21:25:22.888Z,98410.00
2019-03-09T21:27:52.174Z,98423.00
2019-03-09T21:30:21.243Z,98421.00
2019-03-09T21:32:50.305Z,98422.00
2019-03-09T21:35:19.431Z,98422.00
2019-03-09T21:37:48.528Z,98414.00
2019-03-09T21:40:17.499Z,98416.00
2019-03-09T21:42:46.569Z,98404.00
2019-03-09T21:45:15.598Z,98404.00
2019-03-09T21:47:44.598Z,98411.00
2019-03-09T21:50:13.851Z,98416.00
2019-03-09T21:52:43.123Z,98434.00
2019-03-09T21:55:12.440Z,98455.00
2019-03-09T21:57:41.827Z,98451.00
2019-03-09T22:00:12.516Z,98452.00
2019-03-09T22:02:41.533Z,98451.00
2019-03-09T22:05:11.907Z,98451.00
2019-03-09T22:07:40.971Z,98472.00
2019-03-09T22:10:10.134Z,98463.00
2019-03-09T22:12:39.129Z,98465.00
2019-03-09T22:15:08.920Z,98464.00
2019-03-09T22:17:37.927Z,98445.00
2019-03-09T22:20:07.420Z,98446.00
2019-03-09T22:22:36.500Z,98446.00
2019-03-09T22:25:06.940Z,98455.00
2019-03-09T22:27:35.989Z,98454.00
2019-03-09T22:30:05.893Z,98451.00
2019-03-09T22:32:34.959Z,98442.00
2019-03-09T22:35:04.574Z,98440.00
2019-03-09T22:37:33.639Z,98441.00
2019-03-09T22:40:02.719Z,98445.00
2019-03-09T22:42:31.709Z,98433.00
2019-03-09T22:45:01.061Z,98431.00
2019-03-09T22:47:30.157Z,98432.00
2019-03-09T22:49:59.232Z,98439.00
2019-03-09T22:52:28.339Z,98450.00
2019-03-09T22:54:57.337Z,98454.00
2019-03-09T22:57:26.372Z,98453.00
2019-03-09T22:59:55.373Z,98444.00
2019-03-09T23:02:24.525Z,98447.00
2019-03-09T23:04:53.746Z,98449.00
2019-03-09T23:07:22.825Z,98466.00
2019-03-09T23:09:51.891Z,98451.00
2019-03-09T23:12:21.444Z,98439.00
2019-03-09T23:14:50.812Z,98449.00
2019-03-09T23:17:19.877Z,98445.00
2019-03-09T23:19:49.018Z,98455.00
2019-03-09T23:22:18.060Z,98450.00
2019-03-09T23:24:47.153Z,98449.00
2019-03-09T23:27:16.287Z,98451.00
2019-03-09T23:29:45.558Z,98464.00
2019-03-09T23:32:14.686Z,98452.00
2019-03-09T23:34:43.690Z,98448.00
2019-03-09T23:37:12.677Z,98453.00
2019-03-09T23:39:41.694Z,98468.00
2019-03-09T23:42:10.772Z,98447.00
2019-03-09T23:44:39.944Z,98446.00
2019-03-09T23:47:09.369Z,98440.00
2019-03-09T23:49:38.547Z,98446.00
2019-03-09T23:52:07.703Z,98442.00
2019-03-09T23:54:36.804Z,98460.00
2019-03-09T23:57:05.858Z,98438.00
2019-03-09T23:59:35.582Z,98438.00
